Aimores, Brazil
Current Conditions -  °F | °C
As of 8:00 PM on Saturday 20 Dec 2014 (Local Time) from SBVT Reporting Station
Clear Clear  
Wind Chill: 79°   Ceiling: Unl
Heat Index: 81°   Visibility: 6mi
Dew Point: 68°   Wind: 20mph
Humidity: 69%   Direction: 40°NE
Pressure: 29.83"   Gusts: NA
Location:  19.5°S, 41.07°W
Report Text: SBVT 202200Z 04017KT CAVOK 26/20 Q1010
Loading
Personal Weather Stations






























Interactive Weather Map New forecast layout! Learn more

10-Day Weather Forecast

Advertisements
Track Severe Weather on mobile